METAR Data
IDs: Format: Raw Decoded Include TAF

Data at: 1950 UTC 17 Nov 2019

KIIB 171935Z AUTO 00000KT 1 3/4SM -DZ OVC005 03/03 A2986 RMK AO2 P0001 T00320027
KIIB 171915Z AUTO 27003KT 1 1/2SM -DZ OVC005 03/02 A2987 RMK AO2 P0001 T00280023
KIIB 171855Z AUTO 28004KT 1 1/2SM RA OVC005 02/02 A2988 RMK AO2 P0002 T00240019
KIIB 171835Z AUTO 29004KT 1 3/4SM -RA OVC007 02/02 A2989 RMK AO2 P0001 T00220016
KIIB 171815Z AUTO 29004KT 2SM -RA OVC007 02/02 A2989 RMK AO2 T00220015
KIIB 171755Z AUTO 29004KT 2SM -DZ OVC009 02/01 A2990 RMK AO2 P0002 T00210012
KIIB 171735Z AUTO 27003KT 2SM RA OVC009 02/01 A2991 RMK AO2 P0001 T00200010
KIIB 171715Z AUTO 00000KT 2SM RA SCT011 BKN025 OVC034 02/01 A2992 RMK AO2 T00210010
KIIB 171655Z AUTO 23003KT 2 1/2SM -RA OVC036 02/01 A2992 RMK AO2 T00210007
KIIB 171635Z AUTO 24003KT 3SM -DZ BKN038 BKN049 OVC070 02/00 A2993 RMK AO2 T00210003
KIIB 171615Z AUTO 22004KT 4SM BR OVC070 02/00 A2993 RMK AO2 T00210002
KIIB 171555Z AUTO 20003KT 4SM BR OVC070 02/00 A2993 RMK AO2 T00180001
KIIB 171535Z AUTO 18003KT 4SM BR OVC070 02/00 A2992 RMK AO2 T00160001
KIIB 171515Z AUTO 00000KT 2 1/2SM BR OVC080 01/00 A2993 RMK AO2 T00130001
KIIB 171455Z AUTO 00000KT 2 1/2SM BR OVC080 01/00 A2993 RMK AO2 T00110001
KIIB 171435Z AUTO 00000KT 2 1/2SM BR OVC080 01/00 A2993 RMK AO2 T00080000
KIIB 171415Z AUTO 00000KT 2 1/2SM BR OVC080 01/00 A2993 RMK AO2 T00060000
KIIB 171355Z AUTO 14003KT 2 1/2SM BR OVC080 01/00 A2994 RMK AO2 T00060000
KIIB 171335Z AUTO 15003KT 2 1/2SM BR OVC090 01/00 A2994 RMK AO2 T00050000
KIIB 171315Z AUTO 00000KT 2 1/2SM BR OVC090 00/00 A2994 RMK AO2 T00031001
KIIB 171255Z AUTO 14004KT 2 1/2SM BR SCT090 00/00 A2994 RMK AO2 T00021005
KIIB 171235Z AUTO 14004KT 2SM BR SCT100 SCT120 00/00 A2994 RMK AO2 T00021005
KIIB 171215Z AUTO 00000KT 2 1/2SM BR BKN120 00/00 A2995 RMK AO2 T00021005
KIIB 171155Z AUTO 15003KT 2 1/2SM BR BKN110 00/00 A2995 RMK AO2 T00041005
KIIB 171135Z AUTO 14004KT 3SM BR BKN120 01/00 A2995 RMK AO2 T00061004
KIIB 171115Z AUTO 16004KT 3SM BR BKN120 01/00 A2996 RMK AO2 T00081004
KIIB 171055Z AUTO 15006KT 3SM BR SCT120 01/00 A2996 RMK AO2 T00071004
KIIB 171035Z AUTO 15007KT 3SM BR SCT110 01/00 A2996 RMK AO2 T00061003
KIIB 171015Z AUTO 15008KT 3SM BR SCT120 01/00 A2997 RMK AO2 T00061005
KIIB 170955Z AUTO 15008KT 3SM BR CLR 01/00 A2998 RMK AO2 T00051005
KIIB 170935Z AUTO 14010KT 3SM BR CLR 01/00 A2998 RMK AO2 T00071003
KIIB 170915Z AUTO 14009KT 3SM BR CLR 01/00 A2999 RMK AO2 T00101003
KIIB 170855Z AUTO 15009KT 3SM BR CLR 01/00 A3000 RMK AO2 T00101001
KIIB 170835Z AUTO 15009KT 3SM BR SCT120 01/00 A3001 RMK AO2 T00101001
KIIB 170815Z AUTO 15010KT 3SM BR BKN120 01/00 A3002 RMK AO2 T00101002
KIIB 170755Z AUTO 15009KT 3SM BR BKN120 01/00 A3003 RMK AO2 T00101002
KIIB 170735Z AUTO 14008KT 4SM BR CLR 01/00 A3004 RMK AO2 T00081005
KIIB 170715Z AUTO 15008KT 4SM BR CLR 01/00 A3005 RMK AO2 T00081004
KIIB 170655Z AUTO 15008KT 4SM BR CLR 01/00 A3006 RMK AO2 T00091005
KIIB 170635Z AUTO 15008KT 3SM BR CLR 01/00 A3007 RMK AO2 T00061005
KIIB 170615Z AUTO 14007KT 4SM BR CLR 01/00 A3007 RMK AO2 T00061005
KIIB 170555Z AUTO 14007KT 4SM BR CLR 00/M01 A3008 RMK AO2 T00031007
KIIB 170535Z AUTO 15007KT 4SM BR CLR 00/M01 A3009 RMK AO2 T00011010
KIIB 170515Z AUTO 14007KT 4SM BR CLR 01/M01 A3009 RMK AO2 T00051008
KIIB 170455Z AUTO 14008KT 4SM BR CLR 01/M01 A3009 RMK AO2 T00061010
KIIB 170435Z AUTO 14007KT 5SM BR CLR 01/M01 A3010 RMK AO2 T00081010
KIIB 170415Z AUTO 15007KT 5SM BR CLR 01/M01 A3011 RMK AO2 T00121010
KIIB 170355Z AUTO 15008KT 5SM BR CLR 01/M01 A3011 RMK AO2 T00111010
KIIB 170335Z AUTO 15012KT 5SM HZ CLR 01/M01 A3011 RMK AO2 T00141009
KIIB 170315Z AUTO 15013KT 5SM HZ CLR 02/M01 A3010 RMK AO2 T00151008
KIIB 170255Z AUTO 14010KT 5SM BR CLR 01/M01 A3010 RMK AO2 T00131008
KIIB 170235Z AUTO 14012KT 5SM BR CLR 01/M01 A3009 RMK AO2 T00121008
KIIB 170215Z AUTO 14013KT 5SM BR CLR 01/M01 A3009 RMK AO2 T00131008
KIIB 170155Z AUTO 14012KT 5SM BR CLR 01/M01 A3009 RMK AO2 T00121007
KIIB 170135Z AUTO 14013KT 5SM BR CLR 02/00 A3010 RMK AO2 T00151005
KIIB 170115Z AUTO 14016KT 5SM HZ CLR 02/00 A3009 RMK AO2 T00201005
KIIB 170055Z AUTO 13013KT 5SM BR CLR 02/00 A3010 RMK AO2 T00181005
KIIB 170035Z AUTO 13011KT 5SM BR CLR 02/00 A3011 RMK AO2 T00161005
KIIB 170015Z AUTO 13010KT 5SM BR CLR 02/M01 A3012 RMK AO2 T00151006
KIIB 162355Z AUTO 13010KT 5SM BR CLR 02/00 A3012 RMK AO2 T00171005
KIIB 162335Z AUTO 13010KT 5SM HZ CLR 02/00 A3012 RMK AO2 T00201005
KIIB 162315Z AUTO 13012KT 5SM BR CLR 02/00 A3010 RMK AO2 T00201001
KIIB 162255Z AUTO 12012KT 4SM BR CLR 02/00 A3011 RMK AO2 T00200001
KIIB 162235Z AUTO 13012KT 5SM BR CLR 02/00 A3012 RMK AO2 T00230001
KIIB 162215Z AUTO 13010KT 5SM HZ CLR 03/01 A3014 RMK AO2 T00320005
KIIB 162155Z AUTO 13013KT 5SM HZ CLR 04/01 A3014 RMK AO2 T00380007
KIIB 162135Z AUTO 14013G17KT 7SM CLR 05/01 A3015 RMK AO2 T00450010
KIIB 162115Z AUTO 14014G17KT 7SM CLR 05/01 A3015 RMK AO2 T00470010
KIIB 162055Z AUTO 14015KT 7SM CLR 05/01 A3015 RMK AO2 T00500011
KIIB 162035Z AUTO 14015KT 7SM CLR 05/01 A3016 RMK AO2 T00480011
KIIB 162015Z AUTO 14013G19KT 7SM CLR 05/01 A3017 RMK AO2 T00460011
KIIB 161955Z AUTO 14016KT 5SM HZ CLR 05/01 A3017 RMK AO2 T00460013
KIIB 161935Z AUTO 14015KT 5SM HZ CLR 04/01 A3018 RMK AO2 T00430009
KIIB 161915Z AUTO 14015KT 5SM HZ CLR 05/01 A3018 RMK AO2 T00540011
KIIB 161855Z AUTO 14012KT 5SM HZ CLR 04/01 A3020 RMK AO2 T00400006
KIIB 161835Z AUTO 14011KT 5SM HZ CLR 04/01 A3022 RMK AO2 T00430005
KIIB 161815Z AUTO 14010KT 5SM HZ CLR 05/01 A3023 RMK AO2 T00480009
KIIB 161755Z AUTO 14010KT 5SM HZ CLR 03/00 A3025 RMK AO2 T00330004
KIIB 161735Z AUTO 14009KT 5SM HZ CLR 03/00 A3026 RMK AO2 T00300001
KIIB 161715Z AUTO 14010KT 4SM HZ CLR 03/00 A3027 RMK AO2 T00290001
KIIB 161655Z AUTO 15010KT 4SM BR CLR 02/00 A3028 RMK AO2 T00191001
KIIB 161635Z AUTO 14010KT 4SM BR CLR 01/00 A3029 RMK AO2 T00141004
KIIB 161615Z AUTO 15010KT 4SM BR CLR 01/M01 A3029 RMK AO2 T00101006
KIIB 161555Z AUTO 14012KT 3SM BR CLR 01/M01 A3029 RMK AO2 T00051009
KIIB 161535Z AUTO 14009KT 3SM BR CLR 00/M01 A3030 RMK AO2 T00001012
KIIB 161515Z AUTO 15010KT 3SM BR CLR 00/M01 A3031 RMK AO2 T00001015
KIIB 161455Z AUTO 15011KT 3SM BR CLR 00/M02 A3032 RMK AO2 T10031018
KIIB 161435Z AUTO 15009KT 3SM BR CLR 00/M02 A3032 RMK AO2 T10041017
KIIB 161415Z AUTO 14010KT 3SM BR CLR M01/M02 A3032 RMK AO2 T10071020
KIIB 161355Z AUTO 14011KT 3SM BR CLR M01/M02 A3032 RMK AO2 T10061020
KIIB 161335Z AUTO 14010KT 2 1/2SM BR CLR M01/M02 A3032 RMK AO2 T10101022
KIIB 161315Z AUTO 14010KT 2 1/2SM BR CLR M01/M03 A3032 RMK AO2 T10151026
KIIB 161255Z AUTO 14010KT 2 1/2SM BR CLR M02/M03 A3032 RMK AO2 T10161026
KIIB 161235Z AUTO 14012G15KT 3SM BR CLR M02/M03 A3031 RMK AO2 T10161026
KIIB 161215Z AUTO 13010KT 3SM BR CLR M02/M03 A3031 RMK AO2 T10161027
KIIB 161155Z AUTO 14010KT 3SM BR CLR M02/M03 A3032 RMK AO2 T10161027
KIIB 161135Z AUTO 14010KT 3SM BR CLR M02/M03 A3032 RMK AO2 T10161027
KIIB 161115Z AUTO 14011KT 4SM BR CLR M02/M03 A3032 RMK AO2 T10161027
KIIB 161055Z AUTO 13010KT 4SM BR CLR M02/M03 A3032 RMK AO2 T10161028
KIIB 161035Z AUTO 14010KT 4SM BR CLR M02/M03 A3033 RMK AO2 T10171027
KIIB 161015Z AUTO 13008KT 4SM BR CLR M02/M03 A3033 RMK AO2 T10181027
KIIB 160955Z AUTO 13007KT 4SM BR CLR M02/M03 A3033 RMK AO2 T10161026
KIIB 160935Z AUTO 13008KT 5SM BR CLR M01/M02 A3033 RMK AO2 T10111022
KIIB 160915Z AUTO 14008KT 4SM BR CLR M02/M02 A3034 RMK AO2 T10161024
KIIB 160855Z AUTO 13006KT 4SM BR CLR M01/M02 A3034 RMK AO2 T10151023
KIIB 160835Z AUTO 13006KT 4SM BR CLR M01/M02 A3034 RMK AO2 T10151022
KIIB 160815Z AUTO 13006KT 4SM BR CLR M02/M02 A3034 RMK AO2 T10171025
KIIB 160755Z AUTO 12006KT 4SM BR CLR M02/M02 A3034 RMK AO2 T10161022